| Time | Temp. | Dewp. | Hum. | Bar. |
|---|---|---|---|---|
| 00:07 | 20.5 | 16.1 | 76 | 1010.9 |
| 00:17 | 20.4 | 16 | 76 | 1010.9 |
| 00:27 | 20.3 | 15.9 | 76 | 1011 |
| 00:37 | 20.3 | 15.9 | 76 | 1011.1 |
| 00:48 | 20.2 | 15.8 | 76 | 1011.1 |
| 00:57 | 20 | 15.8 | 77 | 1011.2 |
| 01:07 | 20 | 15.8 | 77 | 1011.2 |
| 01:18 | 19.9 | 15.8 | 77 | 1011.3 |
| 01:28 | 19.8 | 15.7 | 77 | 1011.2 |
| 01:38 | 19.7 | 15.6 | 77 | 1011.3 |
| 01:47 | 19.7 | 15.8 | 78 | 1011.3 |
| 01:58 | 19.6 | 15.7 | 78 | 1011.2 |
| 02:08 | 19.5 | 15.6 | 78 | 1011.2 |
| 02:18 | 19.4 | 15.7 | 79 | 1011.1 |
| 02:28 | 19.3 | 15.6 | 79 | 1011.1 |
| 02:38 | 19.2 | 15.5 | 79 | 1011.1 |
| 02:48 | 19.1 | 15.4 | 79 | 1011 |
| 02:58 | 19.1 | 15.6 | 80 | 1010.7 |
| 03:09 | 19.1 | 15.6 | 80 | 1010.7 |
| 03:18 | 19.1 | 15.6 | 80 | 1010.6 |
| 03:28 | 19 | 15.5 | 80 | 1010.3 |
| 03:39 | 18.9 | 15.4 | 80 | 1010.3 |
| 03:49 | 18.8 | 15.3 | 80 | 1010.2 |
| 03:59 | 18.8 | 15.3 | 80 | 1010.1 |
| 04:08 | 18.7 | 15.2 | 80 | 1010.1 |
| 04:19 | 18.7 | 15.2 | 80 | 1010 |
| 04:29 | 18.7 | 15.2 | 80 | 1010 |
| 04:39 | 18.6 | 14.9 | 79 | 1010 |
| 04:49 | 18.6 | 14.9 | 79 | 1010 |
| 05:00 | 18.6 | 14.9 | 79 | 1010.1 |
| 05:09 | 18.6 | 14.9 | 79 | 1010.1 |
| 05:19 | 18.6 | 14.7 | 78 | 1010 |
| 05:30 | 18.6 | 14.7 | 78 | 1010.1 |
| 05:40 | 18.6 | 14.7 | 78 | 1010.2 |
| 05:50 | 18.6 | 14.7 | 78 | 1010.1 |
| 06:00 | 18.6 | 14.7 | 78 | 1010.1 |
| 06:10 | 18.6 | 14.7 | 78 | 1010.2 |
| 06:20 | 18.5 | 14.6 | 78 | 1010.2 |
| 06:30 | 18.5 | 14.6 | 78 | 1010.2 |
| 06:41 | 18.4 | 14.3 | 77 | 1010.1 |
| 06:51 | 18.4 | 14.5 | 78 | 1010.1 |
| 07:00 | 18.4 | 14.5 | 78 | 1010.1 |
| 07:10 | 18.4 | 14.7 | 79 | 1010.1 |
| 07:21 | 18.4 | 14.7 | 79 | 1010.2 |
| 07:31 | 18.5 | 15 | 80 | 1010.4 |
| 07:41 | 18.5 | 15 | 80 | 1010.4 |
| 07:51 | 18.6 | 15.3 | 81 | 1010.4 |
| 08:01 | 18.6 | 15.1 | 80 | 1010.3 |
| 08:11 | 18.6 | 15.1 | 80 | 1010.5 |
| 08:21 | 18.8 | 15.3 | 80 | 1010.6 |
| 08:32 | 19 | 15.7 | 81 | 1010.7 |
| 08:42 | 19.2 | 15.7 | 80 | 1010.8 |
| 08:51 | 19.4 | 15.9 | 80 | 1010.9 |
| 09:02 | 19.6 | 16.1 | 80 | 1010.9 |
| 09:12 | 19.9 | 16.2 | 79 | 1010.9 |
| 09:22 | 20.2 | 16.2 | 78 | 1010.9 |
| 09:32 | 20.4 | 16.4 | 78 | 1011 |
| 09:42 | 20.5 | 16.3 | 77 | 1011 |
| 09:52 | 20.4 | 16.2 | 77 | 1011 |
| 10:02 | 20.7 | 16.3 | 76 | 1011 |
| 10:12 | 21 | 16.6 | 76 | 1011 |
| 10:23 | 21.1 | 16.5 | 75 | 1011.1 |
| 10:32 | 21.3 | 16.7 | 75 | 1011 |
| 10:42 | 21.5 | 16.7 | 74 | 1011.1 |
| 10:53 | 21.4 | 16.6 | 74 | 1011.1 |
| 11:03 | 21.3 | 16.5 | 74 | 1011.1 |
| 11:13 | 21.6 | 16.8 | 74 | 1011.1 |
| 11:23 | 21.6 | 16.8 | 74 | 1011.1 |
| 11:33 | 21.8 | 16.7 | 73 | 1011 |
| 11:43 | 21.9 | 16.8 | 73 | 1011.1 |
| 11:53 | 21.9 | 16.8 | 73 | 1011.1 |
| 12:04 | 22 | 16.9 | 73 | 1011.1 |
| 12:13 | 22.1 | 17 | 73 | 1011.1 |
| 12:23 | 22.3 | 17.2 | 73 | 1011 |
| 12:33 | 22.2 | 16.9 | 72 | 1011 |
| 12:44 | 22.1 | 17 | 73 | 1011 |